sensor_id;sensor_type;location;lat;lon;timestamp;P1;durP1;ratioP1;P2;durP2;ratioP2
3698;SDS011;1865;50.918;7.092;2022-11-13T00:00:33;14.83;;;8.40;;
3698;SDS011;1865;50.918;7.092;2022-11-13T00:02:59;19.10;;;9.63;;
3698;SDS011;1865;50.918;7.092;2022-11-13T00:05:25;18.30;;;9.50;;
3698;SDS011;1865;50.918;7.092;2022-11-13T00:07:51;14.90;;;8.90;;
3698;SDS011;1865;50.918;7.092;2022-11-13T00:10:16;16.87;;;9.03;;
3698;SDS011;1865;50.918;7.092;2022-11-13T00:12:42;16.70;;;8.60;;
3698;SDS011;1865;50.918;7.092;2022-11-13T00:15:08;21.13;;;9.57;;
3698;SDS011;1865;50.918;7.092;2022-11-13T00:17:35;17.97;;;9.43;;
3698;SDS011;1865;50.918;7.092;2022-11-13T00:20:01;22.30;;;9.73;;
3698;SDS011;1865;50.918;7.092;2022-11-13T00:22:27;17.70;;;9.43;;
3698;SDS011;1865;50.918;7.092;2022-11-13T00:24:52;15.90;;;9.13;;
3698;SDS011;1865;50.918;7.092;2022-11-13T00:27:18;17.90;;;10.37;;
3698;SDS011;1865;50.918;7.092;2022-11-13T00:29:44;19.80;;;10.53;;
3698;SDS011;1865;50.918;7.092;2022-11-13T00:32:09;17.20;;;10.40;;
3698;SDS011;1865;50.918;7.092;2022-11-13T00:34:35;21.13;;;9.83;;
3698;SDS011;1865;50.918;7.092;2022-11-13T00:37:00;17.50;;;10.33;;
3698;SDS011;1865;50.918;7.092;2022-11-13T00:39:27;17.97;;;9.50;;
3698;SDS011;1865;50.918;7.092;2022-11-13T00:41:52;23.53;;;10.90;;
3698;SDS011;1865;50.918;7.092;2022-11-13T00:44:18;19.53;;;10.00;;
3698;SDS011;1865;50.918;7.092;2022-11-13T00:46:43;18.27;;;10.40;;
3698;SDS011;1865;50.918;7.092;2022-11-13T00:49:09;20.70;;;10.20;;
3698;SDS011;1865;50.918;7.092;2022-11-13T00:51:34;16.87;;;9.67;;
3698;SDS011;1865;50.918;7.092;2022-11-13T00:54:00;25.10;;;9.90;;
3698;SDS011;1865;50.918;7.092;2022-11-13T00:56:25;18.83;;;9.00;;
3698;SDS011;1865;50.918;7.092;2022-11-13T00:58:54;15.70;;;8.70;;
3698;SDS011;1865;50.918;7.092;2022-11-13T01:01:19;17.97;;;9.53;;
3698;SDS011;1865;50.918;7.092;2022-11-13T01:03:45;20.23;;;9.47;;
3698;SDS011;1865;50.918;7.092;2022-11-13T01:06:13;17.10;;;9.77;;
3698;SDS011;1865;50.918;7.092;2022-11-13T01:08:44;13.63;;;9.10;;
3698;SDS011;1865;50.918;7.092;2022-11-13T01:11:11;16.63;;;9.10;;
3698;SDS011;1865;50.918;7.092;2022-11-13T01:13:40;19.73;;;9.80;;
3698;SDS011;1865;50.918;7.092;2022-11-13T01:16:07;22.67;;;9.90;;
3698;SDS011;1865;50.918;7.092;2022-11-13T01:18:34;20.00;;;9.43;;
3698;SDS011;1865;50.918;7.092;2022-11-13T01:21:11;19.43;;;9.73;;
3698;SDS011;1865;50.918;7.092;2022-11-13T01:23:38;14.90;;;8.77;;
3698;SDS011;1865;50.918;7.092;2022-11-13T01:26:06;15.40;;;9.00;;
3698;SDS011;1865;50.918;7.092;2022-11-13T01:28:43;16.73;;;9.43;;
3698;SDS011;1865;50.918;7.092;2022-11-13T01:31:10;18.20;;;10.27;;
3698;SDS011;1865;50.918;7.092;2022-11-13T01:33:39;17.80;;;9.40;;
3698;SDS011;1865;50.918;7.092;2022-11-13T01:36:05;16.00;;;9.40;;
3698;SDS011;1865;50.918;7.092;2022-11-13T01:38:33;18.57;;;9.67;;
3698;SDS011;1865;50.918;7.092;2022-11-13T01:40:59;19.23;;;9.70;;
3698;SDS011;1865;50.918;7.092;2022-11-13T01:43:27;20.27;;;9.60;;
3698;SDS011;1865;50.918;7.092;2022-11-13T01:48:23;24.13;;;10.67;;
3698;SDS011;1865;50.918;7.092;2022-11-13T01:50:57;17.20;;;9.13;;
3698;SDS011;1865;50.918;7.092;2022-11-13T01:53:22;14.73;;;8.67;;
3698;SDS011;1865;50.918;7.092;2022-11-13T01:55:49;15.67;;;8.97;;
3698;SDS011;1865;50.918;7.092;2022-11-13T01:58:15;15.30;;;8.60;;
3698;SDS011;1865;50.918;7.092;2022-11-13T02:00:40;14.70;;;8.33;;
3698;SDS011;1865;50.918;7.092;2022-11-13T02:03:08;17.00;;;9.23;;
3698;SDS011;1865;50.918;7.092;2022-11-13T02:05:34;14.57;;;9.10;;
3698;SDS011;1865;50.918;7.092;2022-11-13T02:08:00;14.60;;;8.67;;
3698;SDS011;1865;50.918;7.092;2022-11-13T02:10:25;15.80;;;8.40;;
3698;SDS011;1865;50.918;7.092;2022-11-13T02:12:51;17.50;;;8.40;;
3698;SDS011;1865;50.918;7.092;2022-11-13T02:15:18;17.13;;;8.50;;
3698;SDS011;1865;50.918;7.092;2022-11-13T02:17:49;16.33;;;8.40;;
3698;SDS011;1865;50.918;7.092;2022-11-13T02:20:22;14.93;;;8.30;;
3698;SDS011;1865;50.918;7.092;2022-11-13T02:23:11;14.27;;;8.40;;
3698;SDS011;1865;50.918;7.092;2022-11-13T02:25:44;17.33;;;9.33;;
3698;SDS011;1865;50.918;7.092;2022-11-13T02:28:14;19.27;;;9.17;;
3698;SDS011;1865;50.918;7.092;2022-11-13T02:30:40;19.17;;;9.07;;
3698;SDS011;1865;50.918;7.092;2022-11-13T02:33:28;14.80;;;8.60;;
3698;SDS011;1865;50.918;7.092;2022-11-13T02:35:53;16.03;;;9.27;;
3698;SDS011;1865;50.918;7.092;2022-11-13T02:38:18;15.23;;;8.80;;
3698;SDS011;1865;50.918;7.092;2022-11-13T02:40:45;19.23;;;7.97;;
3698;SDS011;1865;50.918;7.092;2022-11-13T02:43:11;14.83;;;8.40;;
3698;SDS011;1865;50.918;7.092;2022-11-13T02:45:36;14.47;;;7.93;;
3698;SDS011;1865;50.918;7.092;2022-11-13T02:48:03;15.17;;;8.93;;
3698;SDS011;1865;50.918;7.092;2022-11-13T02:50:31;16.20;;;8.70;;
3698;SDS011;1865;50.918;7.092;2022-11-13T02:52:57;16.70;;;8.07;;
3698;SDS011;1865;50.918;7.092;2022-11-13T02:55:23;14.57;;;8.73;;
3698;SDS011;1865;50.918;7.092;2022-11-13T02:57:48;16.60;;;8.53;;
3698;SDS011;1865;50.918;7.092;2022-11-13T03:00:14;18.43;;;7.73;;
3698;SDS011;1865;50.918;7.092;2022-11-13T03:02:40;15.63;;;7.97;;
3698;SDS011;1865;50.918;7.092;2022-11-13T03:05:05;16.40;;;8.47;;
3698;SDS011;1865;50.918;7.092;2022-11-13T03:07:31;12.73;;;7.60;;
3698;SDS011;1865;50.918;7.092;2022-11-13T03:09:57;15.00;;;8.50;;
3698;SDS011;1865;50.918;7.092;2022-11-13T03:12:22;15.60;;;7.73;;
3698;SDS011;1865;50.918;7.092;2022-11-13T03:14:48;13.53;;;7.70;;
3698;SDS011;1865;50.918;7.092;2022-11-13T03:17:13;13.77;;;7.53;;
3698;SDS011;1865;50.918;7.092;2022-11-13T03:19:39;14.43;;;7.97;;
3698;SDS011;1865;50.918;7.092;2022-11-13T03:22:05;16.13;;;7.70;;
3698;SDS011;1865;50.918;7.092;2022-11-13T03:24:31;12.90;;;8.13;;
3698;SDS011;1865;50.918;7.092;2022-11-13T03:26:57;19.30;;;7.90;;
3698;SDS011;1865;50.918;7.092;2022-11-13T03:29:23;13.00;;;7.10;;
3698;SDS011;1865;50.918;7.092;2022-11-13T03:31:48;16.50;;;8.93;;
3698;SDS011;1865;50.918;7.092;2022-11-13T03:34:14;13.17;;;7.07;;
3698;SDS011;1865;50.918;7.092;2022-11-13T03:36:39;17.90;;;8.20;;
3698;SDS011;1865;50.918;7.092;2022-11-13T03:39:06;16.43;;;8.23;;
3698;SDS011;1865;50.918;7.092;2022-11-13T03:41:32;13.73;;;7.63;;
3698;SDS011;1865;50.918;7.092;2022-11-13T03:43:57;14.23;;;8.00;;
3698;SDS011;1865;50.918;7.092;2022-11-13T03:46:23;13.20;;;7.60;;
3698;SDS011;1865;50.918;7.092;2022-11-13T03:48:48;13.03;;;6.90;;
3698;SDS011;1865;50.918;7.092;2022-11-13T03:51:17;13.50;;;7.80;;
3698;SDS011;1865;50.918;7.092;2022-11-13T03:53:42;17.53;;;7.80;;
3698;SDS011;1865;50.918;7.092;2022-11-13T03:56:08;13.57;;;6.50;;
3698;SDS011;1865;50.918;7.092;2022-11-13T03:58:34;13.43;;;7.60;;
3698;SDS011;1865;50.918;7.092;2022-11-13T04:00:59;13.00;;;7.07;;
3698;SDS011;1865;50.918;7.092;2022-11-13T04:03:25;12.43;;;7.10;;
3698;SDS011;1865;50.918;7.092;2022-11-13T04:05:50;15.03;;;7.40;;
3698;SDS011;1865;50.918;7.092;2022-11-13T04:08:16;21.43;;;7.53;;
3698;SDS011;1865;50.918;7.092;2022-11-13T04:10:42;14.93;;;7.70;;
3698;SDS011;1865;50.918;7.092;2022-11-13T04:13:09;20.50;;;8.20;;
3698;SDS011;1865;50.918;7.092;2022-11-13T04:15:35;13.50;;;7.03;;
3698;SDS011;1865;50.918;7.092;2022-11-13T04:18:01;15.87;;;8.50;;
3698;SDS011;1865;50.918;7.092;2022-11-13T04:20:27;15.67;;;7.90;;
3698;SDS011;1865;50.918;7.092;2022-11-13T04:22:54;11.87;;;6.70;;
3698;SDS011;1865;50.918;7.092;2022-11-13T04:25:20;13.00;;;7.67;;
3698;SDS011;1865;50.918;7.092;2022-11-13T04:27:47;20.50;;;7.70;;
3698;SDS011;1865;50.918;7.092;2022-11-13T04:30:13;13.20;;;7.03;;
3698;SDS011;1865;50.918;7.092;2022-11-13T04:32:39;16.90;;;7.70;;
3698;SDS011;1865;50.918;7.092;2022-11-13T04:35:05;13.33;;;7.30;;
3698;SDS011;1865;50.918;7.092;2022-11-13T04:37:31;15.90;;;6.80;;
3698;SDS011;1865;50.918;7.092;2022-11-13T04:39:57;16.23;;;7.23;;
3698;SDS011;1865;50.918;7.092;2022-11-13T04:42:22;13.63;;;7.20;;
3698;SDS011;1865;50.918;7.092;2022-11-13T04:45:07;18.40;;;7.47;;
3698;SDS011;1865;50.918;7.092;2022-11-13T04:47:32;13.47;;;7.60;;
3698;SDS011;1865;50.918;7.092;2022-11-13T04:49:58;13.20;;;6.90;;
3698;SDS011;1865;50.918;7.092;2022-11-13T04:52:23;13.30;;;7.10;;
3698;SDS011;1865;50.918;7.092;2022-11-13T04:54:49;17.33;;;7.47;;
3698;SDS011;1865;50.918;7.092;2022-11-13T04:57:14;13.03;;;6.73;;
3698;SDS011;1865;50.918;7.092;2022-11-13T04:59:40;12.73;;;7.17;;
3698;SDS011;1865;50.918;7.092;2022-11-13T05:02:07;14.83;;;7.33;;
3698;SDS011;1865;50.918;7.092;2022-11-13T05:04:32;12.10;;;6.50;;
3698;SDS011;1865;50.918;7.092;2022-11-13T05:06:58;11.70;;;6.90;;
3698;SDS011;1865;50.918;7.092;2022-11-13T05:09:23;10.70;;;5.93;;
3698;SDS011;1865;50.918;7.092;2022-11-13T05:11:49;13.67;;;7.17;;
3698;SDS011;1865;50.918;7.092;2022-11-13T05:14:14;11.07;;;6.00;;
3698;SDS011;1865;50.918;7.092;2022-11-13T05:16:40;12.97;;;6.67;;
3698;SDS011;1865;50.918;7.092;2022-11-13T05:19:06;11.60;;;6.23;;
3698;SDS011;1865;50.918;7.092;2022-11-13T05:21:32;18.90;;;6.70;;
3698;SDS011;1865;50.918;7.092;2022-11-13T05:23:59;18.07;;;6.50;;
3698;SDS011;1865;50.918;7.092;2022-11-13T05:26:24;16.93;;;7.87;;
3698;SDS011;1865;50.918;7.092;2022-11-13T05:28:55;12.33;;;5.80;;
3698;SDS011;1865;50.918;7.092;2022-11-13T05:31:24;12.80;;;6.60;;
3698;SDS011;1865;50.918;7.092;2022-11-13T05:33:50;19.73;;;6.20;;
3698;SDS011;1865;50.918;7.092;2022-11-13T05:36:17;15.37;;;6.40;;
3698;SDS011;1865;50.918;7.092;2022-11-13T05:38:43;12.33;;;6.53;;
3698;SDS011;1865;50.918;7.092;2022-11-13T05:41:13;12.03;;;6.33;;
3698;SDS011;1865;50.918;7.092;2022-11-13T05:43:43;12.17;;;6.80;;
3698;SDS011;1865;50.918;7.092;2022-11-13T05:46:13;12.63;;;6.50;;
3698;SDS011;1865;50.918;7.092;2022-11-13T05:48:41;10.13;;;5.70;;
3698;SDS011;1865;50.918;7.092;2022-11-13T05:51:09;11.50;;;6.20;;
3698;SDS011;1865;50.918;7.092;2022-11-13T05:53:35;11.43;;;6.30;;
3698;SDS011;1865;50.918;7.092;2022-11-13T05:56:05;11.83;;;6.70;;
3698;SDS011;1865;50.918;7.092;2022-11-13T05:58:34;10.00;;;5.80;;
3698;SDS011;1865;50.918;7.092;2022-11-13T06:01:07;11.33;;;6.20;;
3698;SDS011;1865;50.918;7.092;2022-11-13T06:03:41;10.43;;;5.80;;
3698;SDS011;1865;50.918;7.092;2022-11-13T06:06:09;11.00;;;5.47;;
3698;SDS011;1865;50.918;7.092;2022-11-13T06:08:37;15.63;;;6.00;;
3698;SDS011;1865;50.918;7.092;2022-11-13T06:11:06;14.43;;;5.63;;
3698;SDS011;1865;50.918;7.092;2022-11-13T06:13:33;18.43;;;6.93;;
3698;SDS011;1865;50.918;7.092;2022-11-13T06:16:00;10.80;;;6.60;;
3698;SDS011;1865;50.918;7.092;2022-11-13T06:18:26;14.80;;;6.63;;
3698;SDS011;1865;50.918;7.092;2022-11-13T06:20:53;12.83;;;6.17;;
3698;SDS011;1865;50.918;7.092;2022-11-13T06:23:18;15.50;;;6.00;;
3698;SDS011;1865;50.918;7.092;2022-11-13T06:25:45;10.33;;;5.60;;
3698;SDS011;1865;50.918;7.092;2022-11-13T06:28:11;14.00;;;6.57;;
3698;SDS011;1865;50.918;7.092;2022-11-13T06:30:38;13.20;;;6.70;;
3698;SDS011;1865;50.918;7.092;2022-11-13T06:33:03;9.63;;;5.43;;
3698;SDS011;1865;50.918;7.092;2022-11-13T06:35:29;17.53;;;5.27;;
3698;SDS011;1865;50.918;7.092;2022-11-13T06:37:54;12.83;;;6.13;;
3698;SDS011;1865;50.918;7.092;2022-11-13T06:40:20;10.67;;;5.70;;
3698;SDS011;1865;50.918;7.092;2022-11-13T06:42:45;10.50;;;5.47;;
3698;SDS011;1865;50.918;7.092;2022-11-13T06:45:11;11.07;;;5.80;;
3698;SDS011;1865;50.918;7.092;2022-11-13T06:47:36;14.10;;;6.00;;
3698;SDS011;1865;50.918;7.092;2022-11-13T06:50:02;9.80;;;5.33;;
3698;SDS011;1865;50.918;7.092;2022-11-13T06:52:28;10.40;;;5.40;;
3698;SDS011;1865;50.918;7.092;2022-11-13T06:54:53;10.30;;;5.73;;
3698;SDS011;1865;50.918;7.092;2022-11-13T06:57:19;11.97;;;5.43;;
3698;SDS011;1865;50.918;7.092;2022-11-13T06:59:44;11.47;;;6.30;;
3698;SDS011;1865;50.918;7.092;2022-11-13T07:02:10;13.67;;;6.50;;
3698;SDS011;1865;50.918;7.092;2022-11-13T07:04:36;12.40;;;6.30;;
3698;SDS011;1865;50.918;7.092;2022-11-13T07:07:02;13.63;;;5.80;;
3698;SDS011;1865;50.918;7.092;2022-11-13T07:09:28;12.97;;;5.37;;
3698;SDS011;1865;50.918;7.092;2022-11-13T07:11:56;12.40;;;5.10;;
3698;SDS011;1865;50.918;7.092;2022-11-13T07:14:21;11.07;;;5.13;;
3698;SDS011;1865;50.918;7.092;2022-11-13T07:16:47;14.07;;;5.70;;
3698;SDS011;1865;50.918;7.092;2022-11-13T07:19:12;11.40;;;6.10;;
3698;SDS011;1865;50.918;7.092;2022-11-13T07:21:38;17.60;;;5.57;;
3698;SDS011;1865;50.918;7.092;2022-11-13T07:24:04;9.87;;;5.43;;
3698;SDS011;1865;50.918;7.092;2022-11-13T07:26:29;10.23;;;5.33;;
3698;SDS011;1865;50.918;7.092;2022-11-13T07:28:55;9.20;;;5.43;;
3698;SDS011;1865;50.918;7.092;2022-11-13T07:31:20;9.97;;;5.47;;
3698;SDS011;1865;50.918;7.092;2022-11-13T07:33:47;10.23;;;5.40;;
3698;SDS011;1865;50.918;7.092;2022-11-13T07:36:13;9.60;;;5.33;;
3698;SDS011;1865;50.918;7.092;2022-11-13T07:38:39;8.23;;;4.77;;
3698;SDS011;1865;50.918;7.092;2022-11-13T07:41:05;12.90;;;5.60;;
3698;SDS011;1865;50.918;7.092;2022-11-13T07:43:32;12.03;;;5.20;;
3698;SDS011;1865;50.918;7.092;2022-11-13T07:46:02;12.77;;;5.90;;
3698;SDS011;1865;50.918;7.092;2022-11-13T07:48:29;9.97;;;4.57;;
3698;SDS011;1865;50.918;7.092;2022-11-13T07:50:54;10.07;;;5.13;;
3698;SDS011;1865;50.918;7.092;2022-11-13T07:53:25;11.07;;;5.33;;
3698;SDS011;1865;50.918;7.092;2022-11-13T07:55:52;9.57;;;4.80;;
3698;SDS011;1865;50.918;7.092;2022-11-13T07:58:18;12.40;;;5.27;;
3698;SDS011;1865;50.918;7.092;2022-11-13T08:00:43;11.23;;;5.63;;
3698;SDS011;1865;50.918;7.092;2022-11-13T08:03:13;10.97;;;5.13;;
3698;SDS011;1865;50.918;7.092;2022-11-13T08:05:39;14.53;;;5.87;;
3698;SDS011;1865;50.918;7.092;2022-11-13T08:08:06;11.73;;;5.20;;
3698;SDS011;1865;50.918;7.092;2022-11-13T08:10:31;10.03;;;5.20;;
3698;SDS011;1865;50.918;7.092;2022-11-13T08:13:02;8.90;;;5.00;;
3698;SDS011;1865;50.918;7.092;2022-11-13T08:15:30;9.07;;;4.40;;
3698;SDS011;1865;50.918;7.092;2022-11-13T08:17:58;9.63;;;5.10;;
3698;SDS011;1865;50.918;7.092;2022-11-13T08:20:26;9.33;;;4.93;;
3698;SDS011;1865;50.918;7.092;2022-11-13T08:22:55;10.10;;;5.00;;
3698;SDS011;1865;50.918;7.092;2022-11-13T08:25:21;10.30;;;5.10;;
3698;SDS011;1865;50.918;7.092;2022-11-13T08:27:48;11.70;;;4.67;;
3698;SDS011;1865;50.918;7.092;2022-11-13T08:30:16;7.87;;;4.13;;
3698;SDS011;1865;50.918;7.092;2022-11-13T08:32:46;7.37;;;3.83;;
3698;SDS011;1865;50.918;7.092;2022-11-13T08:35:12;8.80;;;3.93;;
3698;SDS011;1865;50.918;7.092;2022-11-13T08:37:37;11.17;;;4.80;;
3698;SDS011;1865;50.918;7.092;2022-11-13T08:40:03;9.57;;;4.50;;
3698;SDS011;1865;50.918;7.092;2022-11-13T08:42:29;11.33;;;4.10;;
3698;SDS011;1865;50.918;7.092;2022-11-13T08:44:56;10.60;;;4.30;;
3698;SDS011;1865;50.918;7.092;2022-11-13T08:47:21;10.13;;;4.77;;
3698;SDS011;1865;50.918;7.092;2022-11-13T08:49:47;10.90;;;4.77;;
3698;SDS011;1865;50.918;7.092;2022-11-13T08:52:14;10.93;;;4.10;;
3698;SDS011;1865;50.918;7.092;2022-11-13T08:54:40;9.10;;;5.13;;
3698;SDS011;1865;50.918;7.092;2022-11-13T08:57:05;10.20;;;5.00;;
3698;SDS011;1865;50.918;7.092;2022-11-13T08:59:32;11.27;;;5.00;;
3698;SDS011;1865;50.918;7.092;2022-11-13T09:01:57;10.67;;;5.23;;
3698;SDS011;1865;50.918;7.092;2022-11-13T09:04:24;10.53;;;4.73;;
3698;SDS011;1865;50.918;7.092;2022-11-13T09:06:50;11.33;;;4.60;;
3698;SDS011;1865;50.918;7.092;2022-11-13T09:09:16;8.60;;;3.80;;
3698;SDS011;1865;50.918;7.092;2022-11-13T09:11:43;9.30;;;4.33;;
3698;SDS011;1865;50.918;7.092;2022-11-13T09:14:08;11.20;;;4.47;;
3698;SDS011;1865;50.918;7.092;2022-11-13T09:16:34;10.60;;;3.77;;
3698;SDS011;1865;50.918;7.092;2022-11-13T09:18:59;8.70;;;3.53;;
3698;SDS011;1865;50.918;7.092;2022-11-13T09:21:25;9.23;;;3.67;;
3698;SDS011;1865;50.918;7.092;2022-11-13T09:23:52;8.57;;;2.90;;
3698;SDS011;1865;50.918;7.092;2022-11-13T09:26:26;9.13;;;3.40;;
3698;SDS011;1865;50.918;7.092;2022-11-13T09:28:52;10.30;;;3.10;;
3698;SDS011;1865;50.918;7.092;2022-11-13T09:31:17;8.73;;;2.90;;
3698;SDS011;1865;50.918;7.092;2022-11-13T09:33:43;8.10;;;2.80;;
3698;SDS011;1865;50.918;7.092;2022-11-13T09:36:10;9.67;;;3.40;;
3698;SDS011;1865;50.918;7.092;2022-11-13T09:38:38;9.10;;;2.90;;
3698;SDS011;1865;50.918;7.092;2022-11-13T09:41:04;12.73;;;3.87;;
3698;SDS011;1865;50.918;7.092;2022-11-13T09:43:44;10.53;;;4.10;;
3698;SDS011;1865;50.918;7.092;2022-11-13T09:46:20;8.40;;;3.30;;
3698;SDS011;1865;50.918;7.092;2022-11-13T09:51:49;9.73;;;3.13;;
3698;SDS011;1865;50.918;7.092;2022-11-13T09:54:18;10.57;;;3.30;;
3698;SDS011;1865;50.918;7.092;2022-11-13T10:07:42;12.67;;;4.70;;
3698;SDS011;1865;50.918;7.092;2022-11-13T10:10:26;9.07;;;2.90;;
3698;SDS011;1865;50.918;7.092;2022-11-13T10:13:18;8.77;;;3.00;;
3698;SDS011;1865;50.918;7.092;2022-11-13T10:15:51;7.90;;;2.70;;
3698;SDS011;1865;50.918;7.092;2022-11-13T10:18:29;8.77;;;2.63;;
3698;SDS011;1865;50.918;7.092;2022-11-13T10:21:41;8.50;;;2.73;;
3698;SDS011;1865;50.918;7.092;2022-11-13T10:23:56;7.57;;;2.20;;
3698;SDS011;1865;50.918;7.092;2022-11-13T10:26:27;9.10;;;2.43;;
3698;SDS011;1865;50.918;7.092;2022-11-13T10:28:55;7.80;;;2.40;;
3698;SDS011;1865;50.918;7.092;2022-11-13T10:31:27;10.50;;;2.17;;
3698;SDS011;1865;50.918;7.092;2022-11-13T10:33:53;7.10;;;1.70;;
3698;SDS011;1865;50.918;7.092;2022-11-13T10:39:04;11.07;;;2.30;;
3698;SDS011;1865;50.918;7.092;2022-11-13T10:41:32;7.80;;;2.73;;
3698;SDS011;1865;50.918;7.092;2022-11-13T10:44:03;7.47;;;2.10;;
3698;SDS011;1865;50.918;7.092;2022-11-13T10:46:30;7.63;;;1.90;;
3698;SDS011;1865;50.918;7.092;2022-11-13T10:48:57;15.90;;;2.10;;
3698;SDS011;1865;50.918;7.092;2022-11-13T10:51:34;9.03;;;2.00;;
3698;SDS011;1865;50.918;7.092;2022-11-13T10:54:09;7.80;;;2.30;;
3698;SDS011;1865;50.918;7.092;2022-11-13T10:56:55;7.90;;;2.30;;
3698;SDS011;1865;50.918;7.092;2022-11-13T10:59:25;7.63;;;1.70;;
3698;SDS011;1865;50.918;7.092;2022-11-13T11:04:35;7.70;;;2.03;;
3698;SDS011;1865;50.918;7.092;2022-11-13T11:07:11;7.43;;;1.90;;
3698;SDS011;1865;50.918;7.092;2022-11-13T11:09:39;10.00;;;2.30;;
3698;SDS011;1865;50.918;7.092;2022-11-13T11:12:10;13.67;;;1.97;;
3698;SDS011;1865;50.918;7.092;2022-11-13T11:14:46;8.70;;;1.90;;
3698;SDS011;1865;50.918;7.092;2022-11-13T11:17:24;7.50;;;1.77;;
3698;SDS011;1865;50.918;7.092;2022-11-13T11:20:15;8.10;;;1.87;;
3698;SDS011;1865;50.918;7.092;2022-11-13T11:22:49;10.00;;;2.03;;
3698;SDS011;1865;50.918;7.092;2022-11-13T11:27:59;8.57;;;1.87;;
3698;SDS011;1865;50.918;7.092;2022-11-13T11:30:34;7.97;;;2.57;;
3698;SDS011;1865;50.918;7.092;2022-11-13T11:35:55;7.90;;;2.30;;
3698;SDS011;1865;50.918;7.092;2022-11-13T11:38:34;8.53;;;1.90;;
3698;SDS011;1865;50.918;7.092;2022-11-13T11:41:12;7.97;;;1.87;;
3698;SDS011;1865;50.918;7.092;2022-11-13T11:43:43;7.90;;;1.77;;
3698;SDS011;1865;50.918;7.092;2022-11-13T11:46:13;6.90;;;1.53;;
3698;SDS011;1865;50.918;7.092;2022-11-13T11:48:41;8.30;;;2.00;;
3698;SDS011;1865;50.918;7.092;2022-11-13T11:59:22;7.73;;;2.13;;
3698;SDS011;1865;50.918;7.092;2022-11-13T12:21:19;8.33;;;1.60;;
3698;SDS011;1865;50.918;7.092;2022-11-13T12:24:13;7.70;;;1.70;;
3698;SDS011;1865;50.918;7.092;2022-11-13T12:26:55;7.80;;;2.00;;
3698;SDS011;1865;50.918;7.092;2022-11-13T12:32:28;6.93;;;1.63;;
3698;SDS011;1865;50.918;7.092;2022-11-13T12:35:10;7.77;;;1.80;;
3698;SDS011;1865;50.918;7.092;2022-11-13T12:40:36;9.83;;;1.73;;
3698;SDS011;1865;50.918;7.092;2022-11-13T12:46:04;8.77;;;1.43;;
3698;SDS011;1865;50.918;7.092;2022-11-13T12:48:34;9.07;;;1.80;;
3698;SDS011;1865;50.918;7.092;2022-11-13T12:51:11;8.03;;;2.20;;
3698;SDS011;1865;50.918;7.092;2022-11-13T12:53:48;10.40;;;1.90;;
3698;SDS011;1865;50.918;7.092;2022-11-13T13:01:45;8.43;;;1.70;;
3698;SDS011;1865;50.918;7.092;2022-11-13T13:12:40;10.83;;;2.77;;
3698;SDS011;1865;50.918;7.092;2022-11-13T13:15:28;8.07;;;1.90;;
3698;SDS011;1865;50.918;7.092;2022-11-13T13:18:30;10.17;;;1.73;;
3698;SDS011;1865;50.918;7.092;2022-11-13T13:23:32;13.00;;;2.00;;
3698;SDS011;1865;50.918;7.092;2022-11-13T13:28:38;8.40;;;2.20;;
3698;SDS011;1865;50.918;7.092;2022-11-13T13:36:21;9.53;;;2.00;;
3698;SDS011;1865;50.918;7.092;2022-11-13T13:38:56;8.83;;;2.60;;
3698;SDS011;1865;50.918;7.092;2022-11-13T13:47:59;8.70;;;2.07;;
3698;SDS011;1865;50.918;7.092;2022-11-13T13:50:33;9.33;;;2.20;;
3698;SDS011;1865;50.918;7.092;2022-11-13T13:53:05;9.63;;;2.27;;
3698;SDS011;1865;50.918;7.092;2022-11-13T13:55:36;7.37;;;2.10;;
3698;SDS011;1865;50.918;7.092;2022-11-13T13:58:11;8.37;;;2.30;;
3698;SDS011;1865;50.918;7.092;2022-11-13T14:00:40;13.20;;;3.20;;
3698;SDS011;1865;50.918;7.092;2022-11-13T14:03:15;9.30;;;2.00;;
3698;SDS011;1865;50.918;7.092;2022-11-13T14:05:43;7.53;;;1.80;;
3698;SDS011;1865;50.918;7.092;2022-11-13T14:08:16;8.90;;;2.17;;
3698;SDS011;1865;50.918;7.092;2022-11-13T14:10:43;8.30;;;2.37;;
3698;SDS011;1865;50.918;7.092;2022-11-13T14:13:11;8.50;;;2.50;;
3698;SDS011;1865;50.918;7.092;2022-11-13T14:15:38;8.00;;;2.80;;
3698;SDS011;1865;50.918;7.092;2022-11-13T14:20:51;7.03;;;2.00;;
3698;SDS011;1865;50.918;7.092;2022-11-13T14:25:54;9.47;;;2.70;;
3698;SDS011;1865;50.918;7.092;2022-11-13T14:28:23;7.97;;;2.13;;
3698;SDS011;1865;50.918;7.092;2022-11-13T14:30:51;7.83;;;2.23;;
3698;SDS011;1865;50.918;7.092;2022-11-13T14:33:28;7.80;;;2.40;;
3698;SDS011;1865;50.918;7.092;2022-11-13T14:35:56;8.43;;;2.20;;
3698;SDS011;1865;50.918;7.092;2022-11-13T14:38:24;6.90;;;1.90;;
3698;SDS011;1865;50.918;7.092;2022-11-13T14:40:52;9.30;;;2.07;;
3698;SDS011;1865;50.918;7.092;2022-11-13T14:43:23;7.73;;;2.20;;
3698;SDS011;1865;50.918;7.092;2022-11-13T14:45:53;8.13;;;2.07;;
3698;SDS011;1865;50.918;7.092;2022-11-13T14:48:22;7.63;;;2.10;;
3698;SDS011;1865;50.918;7.092;2022-11-13T14:50:57;7.13;;;2.30;;
3698;SDS011;1865;50.918;7.092;2022-11-13T14:55:58;8.60;;;2.70;;
3698;SDS011;1865;50.918;7.092;2022-11-13T14:58:30;7.77;;;2.20;;
3698;SDS011;1865;50.918;7.092;2022-11-13T15:00:58;7.70;;;2.23;;
3698;SDS011;1865;50.918;7.092;2022-11-13T15:03:43;11.20;;;3.27;;
3698;SDS011;1865;50.918;7.092;2022-11-13T15:08:49;7.23;;;2.53;;
3698;SDS011;1865;50.918;7.092;2022-11-13T15:11:19;7.63;;;2.53;;
3698;SDS011;1865;50.918;7.092;2022-11-13T15:13:48;9.80;;;2.80;;
3698;SDS011;1865;50.918;7.092;2022-11-13T15:16:20;9.30;;;2.90;;
3698;SDS011;1865;50.918;7.092;2022-11-13T15:18:51;8.83;;;2.60;;
3698;SDS011;1865;50.918;7.092;2022-11-13T15:21:28;9.87;;;2.87;;
3698;SDS011;1865;50.918;7.092;2022-11-13T15:23:54;8.60;;;2.73;;
3698;SDS011;1865;50.918;7.092;2022-11-13T15:26:20;8.90;;;2.90;;
3698;SDS011;1865;50.918;7.092;2022-11-13T15:28:46;8.80;;;2.60;;
3698;SDS011;1865;50.918;7.092;2022-11-13T15:31:19;8.03;;;2.40;;
3698;SDS011;1865;50.918;7.092;2022-11-13T15:33:47;9.80;;;2.67;;
3698;SDS011;1865;50.918;7.092;2022-11-13T15:36:14;13.00;;;2.90;;
3698;SDS011;1865;50.918;7.092;2022-11-13T15:38:40;8.57;;;2.87;;
3698;SDS011;1865;50.918;7.092;2022-11-13T15:41:07;9.07;;;2.87;;
3698;SDS011;1865;50.918;7.092;2022-11-13T15:43:36;8.33;;;2.60;;
3698;SDS011;1865;50.918;7.092;2022-11-13T15:46:02;10.10;;;3.10;;
3698;SDS011;1865;50.918;7.092;2022-11-13T15:48:27;11.70;;;2.90;;
3698;SDS011;1865;50.918;7.092;2022-11-13T15:50:53;13.73;;;3.13;;
3698;SDS011;1865;50.918;7.092;2022-11-13T15:53:18;9.83;;;2.83;;
3698;SDS011;1865;50.918;7.092;2022-11-13T15:55:44;9.50;;;3.20;;
3698;SDS011;1865;50.918;7.092;2022-11-13T15:58:13;9.37;;;3.30;;
3698;SDS011;1865;50.918;7.092;2022-11-13T16:00:41;11.73;;;3.77;;
3698;SDS011;1865;50.918;7.092;2022-11-13T16:03:09;13.67;;;3.60;;
3698;SDS011;1865;50.918;7.092;2022-11-13T16:05:36;10.00;;;3.50;;
3698;SDS011;1865;50.918;7.092;2022-11-13T16:08:11;13.70;;;3.43;;
3698;SDS011;1865;50.918;7.092;2022-11-13T16:10:38;11.13;;;3.57;;
3698;SDS011;1865;50.918;7.092;2022-11-13T16:13:04;11.63;;;4.00;;
3698;SDS011;1865;50.918;7.092;2022-11-13T16:15:30;10.53;;;3.77;;
3698;SDS011;1865;50.918;7.092;2022-11-13T16:17:55;12.00;;;3.57;;
3698;SDS011;1865;50.918;7.092;2022-11-13T16:20:23;11.87;;;3.60;;
3698;SDS011;1865;50.918;7.092;2022-11-13T16:22:49;10.17;;;3.47;;
3698;SDS011;1865;50.918;7.092;2022-11-13T16:25:16;11.37;;;4.00;;
3698;SDS011;1865;50.918;7.092;2022-11-13T16:27:45;11.60;;;4.13;;
3698;SDS011;1865;50.918;7.092;2022-11-13T16:30:16;13.13;;;3.90;;
3698;SDS011;1865;50.918;7.092;2022-11-13T16:32:44;12.63;;;4.00;;
3698;SDS011;1865;50.918;7.092;2022-11-13T16:35:13;14.60;;;4.20;;
3698;SDS011;1865;50.918;7.092;2022-11-13T16:37:40;12.70;;;4.73;;
3698;SDS011;1865;50.918;7.092;2022-11-13T16:40:16;12.30;;;4.10;;
3698;SDS011;1865;50.918;7.092;2022-11-13T16:42:47;16.80;;;3.80;;
3698;SDS011;1865;50.918;7.092;2022-11-13T16:45:13;12.93;;;4.10;;
3698;SDS011;1865;50.918;7.092;2022-11-13T16:47:38;11.50;;;4.27;;
3698;SDS011;1865;50.918;7.092;2022-11-13T16:50:09;11.37;;;4.00;;
3698;SDS011;1865;50.918;7.092;2022-11-13T16:52:42;12.10;;;3.97;;
3698;SDS011;1865;50.918;7.092;2022-11-13T16:55:07;11.90;;;3.67;;
3698;SDS011;1865;50.918;7.092;2022-11-13T16:57:33;11.40;;;3.27;;